sensor_id;sensor_type;location;lat;lon;timestamp;temperature;humidity
59307;DHT22;47983;53.016;-2.260;2022-11-06T00:01:57;5.10;99.90
59307;DHT22;47983;53.016;-2.260;2022-11-06T00:04:28;5.10;99.90
59307;DHT22;47983;53.016;-2.260;2022-11-06T00:06:56;5.10;99.90
59307;DHT22;47983;53.016;-2.260;2022-11-06T00:09:24;3.90;99.90
59307;DHT22;47983;53.016;-2.260;2022-11-06T00:11:51;5.10;99.90
59307;DHT22;47983;53.016;-2.260;2022-11-06T00:14:19;5.10;99.90
59307;DHT22;47983;53.016;-2.260;2022-11-06T00:16:47;5.10;99.90
59307;DHT22;47983;53.016;-2.260;2022-11-06T00:19:15;5.10;99.90
59307;DHT22;47983;53.016;-2.260;2022-11-06T00:21:43;5.10;99.90
59307;DHT22;47983;53.016;-2.260;2022-11-06T00:24:13;5.10;99.90
59307;DHT22;47983;53.016;-2.260;2022-11-06T00:26:41;5.10;99.90
59307;DHT22;47983;53.016;-2.260;2022-11-06T00:29:12;5.00;99.90
59307;DHT22;47983;53.016;-2.260;2022-11-06T00:31:41;5.10;99.90
59307;DHT22;47983;53.016;-2.260;2022-11-06T00:34:09;5.00;99.90
59307;DHT22;47983;53.016;-2.260;2022-11-06T00:36:37;4.90;99.90
59307;DHT22;47983;53.016;-2.260;2022-11-06T00:39:05;4.90;99.90
59307;DHT22;47983;53.016;-2.260;2022-11-06T00:41:32;4.80;99.90
59307;DHT22;47983;53.016;-2.260;2022-11-06T00:44:01;4.70;99.90
59307;DHT22;47983;53.016;-2.260;2022-11-06T00:46:29;4.70;99.90
59307;DHT22;47983;53.016;-2.260;2022-11-06T00:48:57;4.70;99.90
59307;DHT22;47983;53.016;-2.260;2022-11-06T00:51:33;4.60;99.90
59307;DHT22;47983;53.016;-2.260;2022-11-06T00:54:04;4.70;99.90
59307;DHT22;47983;53.016;-2.260;2022-11-06T00:56:32;4.60;99.90
59307;DHT22;47983;53.016;-2.260;2022-11-06T00:59:02;4.50;99.90
59307;DHT22;47983;53.016;-2.260;2022-11-06T01:01:34;4.50;99.90
59307;DHT22;47983;53.016;-2.260;2022-11-06T01:04:05;4.50;99.90
59307;DHT22;47983;53.016;-2.260;2022-11-06T01:06:35;4.50;99.90
59307;DHT22;47983;53.016;-2.260;2022-11-06T01:09:05;4.50;99.90
59307;DHT22;47983;53.016;-2.260;2022-11-06T01:11:39;4.50;99.90
59307;DHT22;47983;53.016;-2.260;2022-11-06T01:14:27;4.40;99.90
59307;DHT22;47983;53.016;-2.260;2022-11-06T01:16:55;4.40;99.90
59307;DHT22;47983;53.016;-2.260;2022-11-06T01:19:23;4.30;99.90
59307;DHT22;47983;53.016;-2.260;2022-11-06T01:21:51;4.40;99.90
59307;DHT22;47983;53.016;-2.260;2022-11-06T01:24:22;4.30;99.90
59307;DHT22;47983;53.016;-2.260;2022-11-06T01:26:50;4.30;99.90
59307;DHT22;47983;53.016;-2.260;2022-11-06T01:29:39;4.20;99.90
59307;DHT22;47983;53.016;-2.260;2022-11-06T01:32:06;4.20;99.90
59307;DHT22;47983;53.016;-2.260;2022-11-06T01:34:34;4.20;99.90
59307;DHT22;47983;53.016;-2.260;2022-11-06T01:37:02;4.20;99.90
59307;DHT22;47983;53.016;-2.260;2022-11-06T01:39:30;4.20;99.90
59307;DHT22;47983;53.016;-2.260;2022-11-06T01:41:58;4.20;99.90
59307;DHT22;47983;53.016;-2.260;2022-11-06T01:47:16;4.30;99.90
59307;DHT22;47983;53.016;-2.260;2022-11-06T01:49:44;4.30;99.90
59307;DHT22;47983;53.016;-2.260;2022-11-06T01:52:15;4.30;99.90
59307;DHT22;47983;53.016;-2.260;2022-11-06T01:54:46;4.30;99.90
59307;DHT22;47983;53.016;-2.260;2022-11-06T01:57:15;4.40;99.90
59307;DHT22;47983;53.016;-2.260;2022-11-06T01:59:44;4.40;99.90
59307;DHT22;47983;53.016;-2.260;2022-11-06T02:02:13;4.40;99.90
59307;DHT22;47983;53.016;-2.260;2022-11-06T02:04:46;4.50;99.90
59307;DHT22;47983;53.016;-2.260;2022-11-06T02:07:16;4.50;99.90
59307;DHT22;47983;53.016;-2.260;2022-11-06T02:09:44;5.10;99.90
59307;DHT22;47983;53.016;-2.260;2022-11-06T02:23:44;4.80;99.90
59307;DHT22;47983;53.016;-2.260;2022-11-06T02:30:00;4.90;99.90
59307;DHT22;47983;53.016;-2.260;2022-11-06T02:32:12;4.90;99.90
59307;DHT22;47983;53.016;-2.260;2022-11-06T02:34:43;5.00;99.90
59307;DHT22;47983;53.016;-2.260;2022-11-06T02:37:14;5.00;99.90
59307;DHT22;47983;53.016;-2.260;2022-11-06T02:39:44;5.00;99.90
59307;DHT22;47983;53.016;-2.260;2022-11-06T02:42:15;5.10;99.90
59307;DHT22;47983;53.016;-2.260;2022-11-06T02:44:46;5.10;99.90
59307;DHT22;47983;53.016;-2.260;2022-11-06T02:47:18;5.20;99.90
59307;DHT22;47983;53.016;-2.260;2022-11-06T02:49:51;5.30;99.90
59307;DHT22;47983;53.016;-2.260;2022-11-06T02:52:24;5.30;99.90
59307;DHT22;47983;53.016;-2.260;2022-11-06T02:55:08;5.30;99.90
59307;DHT22;47983;53.016;-2.260;2022-11-06T02:57:42;5.40;99.90
59307;DHT22;47983;53.016;-2.260;2022-11-06T03:00:13;5.40;99.90
59307;DHT22;47983;53.016;-2.260;2022-11-06T03:02:47;5.50;99.90
59307;DHT22;47983;53.016;-2.260;2022-11-06T03:08:16;5.60;99.90
59307;DHT22;47983;53.016;-2.260;2022-11-06T03:11:33;5.60;99.90
59307;DHT22;47983;53.016;-2.260;2022-11-06T03:13:57;5.70;99.90
59307;DHT22;47983;53.016;-2.260;2022-11-06T03:20:27;5.70;99.90
59307;DHT22;47983;53.016;-2.260;2022-11-06T03:23:24;5.80;99.90
59307;DHT22;47983;53.016;-2.260;2022-11-06T03:32:10;5.80;99.90
59307;DHT22;47983;53.016;-2.260;2022-11-06T03:34:47;5.80;99.90
59307;DHT22;47983;53.016;-2.260;2022-11-06T03:37:25;5.90;99.90
59307;DHT22;47983;53.016;-2.260;2022-11-06T03:39:57;5.90;99.90
59307;DHT22;47983;53.016;-2.260;2022-11-06T03:42:28;5.90;99.90
59307;DHT22;47983;53.016;-2.260;2022-11-06T03:45:00;5.90;99.90
59307;DHT22;47983;53.016;-2.260;2022-11-06T03:47:41;5.90;99.90
59307;DHT22;47983;53.016;-2.260;2022-11-06T03:50:21;6.00;99.90
59307;DHT22;47983;53.016;-2.260;2022-11-06T03:53:14;6.00;99.90
59307;DHT22;47983;53.016;-2.260;2022-11-06T03:55:52;6.00;99.90
59307;DHT22;47983;53.016;-2.260;2022-11-06T03:58:25;6.00;99.90
59307;DHT22;47983;53.016;-2.260;2022-11-06T04:00:55;6.00;99.90
59307;DHT22;47983;53.016;-2.260;2022-11-06T04:03:33;6.10;99.90
59307;DHT22;47983;53.016;-2.260;2022-11-06T04:06:15;6.10;99.90
59307;DHT22;47983;53.016;-2.260;2022-11-06T04:08:45;6.10;99.90
59307;DHT22;47983;53.016;-2.260;2022-11-06T04:11:34;6.10;99.90
59307;DHT22;47983;53.016;-2.260;2022-11-06T04:14:25;6.20;99.90
59307;DHT22;47983;53.016;-2.260;2022-11-06T04:16:57;6.20;99.90
59307;DHT22;47983;53.016;-2.260;2022-11-06T04:19:25;6.20;99.90
59307;DHT22;47983;53.016;-2.260;2022-11-06T04:28:51;6.30;99.90
59307;DHT22;47983;53.016;-2.260;2022-11-06T04:31:32;6.30;99.90
59307;DHT22;47983;53.016;-2.260;2022-11-06T04:34:26;6.40;99.90
59307;DHT22;47983;53.016;-2.260;2022-11-06T04:37:13;6.40;99.90
59307;DHT22;47983;53.016;-2.260;2022-11-06T04:45:18;6.50;99.90
59307;DHT22;47983;53.016;-2.260;2022-11-06T04:47:51;6.50;99.90
59307;DHT22;47983;53.016;-2.260;2022-11-06T04:50:21;6.50;99.90
59307;DHT22;47983;53.016;-2.260;2022-11-06T04:52:49;6.50;99.90
59307;DHT22;47983;53.016;-2.260;2022-11-06T04:55:20;6.60;99.90
59307;DHT22;47983;53.016;-2.260;2022-11-06T04:57:48;6.50;99.90
59307;DHT22;47983;53.016;-2.260;2022-11-06T05:00:16;6.50;99.90
59307;DHT22;47983;53.016;-2.260;2022-11-06T05:02:44;6.60;99.90
59307;DHT22;47983;53.016;-2.260;2022-11-06T05:05:11;6.60;99.90
59307;DHT22;47983;53.016;-2.260;2022-11-06T05:07:39;6.60;99.90
59307;DHT22;47983;53.016;-2.260;2022-11-06T05:10:08;6.60;99.90
59307;DHT22;47983;53.016;-2.260;2022-11-06T05:12:36;6.70;99.90
59307;DHT22;47983;53.016;-2.260;2022-11-06T05:15:03;6.70;99.90
59307;DHT22;47983;53.016;-2.260;2022-11-06T05:17:31;6.70;99.90
59307;DHT22;47983;53.016;-2.260;2022-11-06T05:20:03;6.70;99.90
59307;DHT22;47983;53.016;-2.260;2022-11-06T05:22:31;6.80;99.90
59307;DHT22;47983;53.016;-2.260;2022-11-06T05:25:17;6.80;99.90
59307;DHT22;47983;53.016;-2.260;2022-11-06T05:27:45;6.80;99.90
59307;DHT22;47983;53.016;-2.260;2022-11-06T05:30:12;6.80;99.90
59307;DHT22;47983;53.016;-2.260;2022-11-06T05:32:40;6.80;99.90
59307;DHT22;47983;53.016;-2.260;2022-11-06T05:35:07;6.90;99.90
59307;DHT22;47983;53.016;-2.260;2022-11-06T05:40:03;6.90;99.90
59307;DHT22;47983;53.016;-2.260;2022-11-06T05:42:31;6.90;99.90
59307;DHT22;47983;53.016;-2.260;2022-11-06T05:44:59;6.90;99.90
59307;DHT22;47983;53.016;-2.260;2022-11-06T05:47:26;6.90;99.90
59307;DHT22;47983;53.016;-2.260;2022-11-06T05:49:54;6.90;99.90
59307;DHT22;47983;53.016;-2.260;2022-11-06T05:54:53;6.90;99.90
59307;DHT22;47983;53.016;-2.260;2022-11-06T05:57:20;6.90;99.90
59307;DHT22;47983;53.016;-2.260;2022-11-06T05:59:48;6.90;99.90
59307;DHT22;47983;53.016;-2.260;2022-11-06T06:02:15;6.90;99.90
59307;DHT22;47983;53.016;-2.260;2022-11-06T06:04:43;7.00;99.90
59307;DHT22;47983;53.016;-2.260;2022-11-06T06:07:11;7.00;99.90
59307;DHT22;47983;53.016;-2.260;2022-11-06T06:09:38;7.00;99.90
59307;DHT22;47983;53.016;-2.260;2022-11-06T06:12:07;7.00;99.90
59307;DHT22;47983;53.016;-2.260;2022-11-06T06:14:37;7.00;99.90
59307;DHT22;47983;53.016;-2.260;2022-11-06T06:17:05;7.00;99.90
59307;DHT22;47983;53.016;-2.260;2022-11-06T06:19:32;7.10;99.90
59307;DHT22;47983;53.016;-2.260;2022-11-06T06:22:00;7.00;99.90
59307;DHT22;47983;53.016;-2.260;2022-11-06T06:24:27;7.00;99.90
59307;DHT22;47983;53.016;-2.260;2022-11-06T06:26:55;7.00;99.90
59307;DHT22;47983;53.016;-2.260;2022-11-06T06:29:23;7.00;99.90
59307;DHT22;47983;53.016;-2.260;2022-11-06T06:31:50;7.00;99.90
59307;DHT22;47983;53.016;-2.260;2022-11-06T06:34:18;7.00;99.90
59307;DHT22;47983;53.016;-2.260;2022-11-06T06:36:52;6.90;99.90
59307;DHT22;47983;53.016;-2.260;2022-11-06T06:39:20;6.90;99.90
59307;DHT22;47983;53.016;-2.260;2022-11-06T06:41:49;6.90;99.90
59307;DHT22;47983;53.016;-2.260;2022-11-06T06:44:17;6.90;99.90
59307;DHT22;47983;53.016;-2.260;2022-11-06T06:46:45;6.90;99.90
59307;DHT22;47983;53.016;-2.260;2022-11-06T06:49:12;6.90;99.90
59307;DHT22;47983;53.016;-2.260;2022-11-06T06:51:40;6.90;99.90
59307;DHT22;47983;53.016;-2.260;2022-11-06T06:54:08;6.90;99.90
59307;DHT22;47983;53.016;-2.260;2022-11-06T06:56:35;6.90;99.90
59307;DHT22;47983;53.016;-2.260;2022-11-06T06:59:03;6.90;99.90
59307;DHT22;47983;53.016;-2.260;2022-11-06T07:01:31;7.00;99.90
59307;DHT22;47983;53.016;-2.260;2022-11-06T07:03:59;7.00;99.90
59307;DHT22;47983;53.016;-2.260;2022-11-06T07:06:30;7.00;99.90
59307;DHT22;47983;53.016;-2.260;2022-11-06T07:08:58;7.00;99.90
59307;DHT22;47983;53.016;-2.260;2022-11-06T07:11:26;6.90;99.90
59307;DHT22;47983;53.016;-2.260;2022-11-06T07:13:54;6.90;99.90
59307;DHT22;47983;53.016;-2.260;2022-11-06T07:16:21;6.90;99.90
59307;DHT22;47983;53.016;-2.260;2022-11-06T07:18:49;6.90;99.90
59307;DHT22;47983;53.016;-2.260;2022-11-06T07:21:17;6.90;99.90
59307;DHT22;47983;53.016;-2.260;2022-11-06T07:23:45;6.90;99.90
59307;DHT22;47983;53.016;-2.260;2022-11-06T07:26:13;7.00;99.90
59307;DHT22;47983;53.016;-2.260;2022-11-06T07:28:40;7.00;99.90
59307;DHT22;47983;53.016;-2.260;2022-11-06T07:31:09;7.00;99.90
59307;DHT22;47983;53.016;-2.260;2022-11-06T07:33:39;7.00;99.90
59307;DHT22;47983;53.016;-2.260;2022-11-06T07:36:10;7.10;99.90
59307;DHT22;47983;53.016;-2.260;2022-11-06T07:38:40;7.10;99.90
59307;DHT22;47983;53.016;-2.260;2022-11-06T07:41:13;7.10;99.90
59307;DHT22;47983;53.016;-2.260;2022-11-06T07:43:41;7.10;99.90
59307;DHT22;47983;53.016;-2.260;2022-11-06T07:46:11;7.20;99.90
59307;DHT22;47983;53.016;-2.260;2022-11-06T07:48:38;7.20;99.90
59307;DHT22;47983;53.016;-2.260;2022-11-06T07:51:08;7.20;99.90
59307;DHT22;47983;53.016;-2.260;2022-11-06T07:53:37;7.20;99.90
59307;DHT22;47983;53.016;-2.260;2022-11-06T07:56:05;7.30;99.90
59307;DHT22;47983;53.016;-2.260;2022-11-06T07:58:33;7.30;99.90
59307;DHT22;47983;53.016;-2.260;2022-11-06T08:01:01;7.40;99.90
59307;DHT22;47983;53.016;-2.260;2022-11-06T08:03:29;7.50;99.90
59307;DHT22;47983;53.016;-2.260;2022-11-06T08:05:58;7.50;99.90
59307;DHT22;47983;53.016;-2.260;2022-11-06T08:08:26;7.50;99.90
59307;DHT22;47983;53.016;-2.260;2022-11-06T08:10:54;7.50;99.90
59307;DHT22;47983;53.016;-2.260;2022-11-06T08:13:22;7.50;99.90
59307;DHT22;47983;53.016;-2.260;2022-11-06T08:18:17;7.60;99.90
59307;DHT22;47983;53.016;-2.260;2022-11-06T08:20:45;7.60;99.90
59307;DHT22;47983;53.016;-2.260;2022-11-06T08:23:13;7.70;99.90
59307;DHT22;47983;53.016;-2.260;2022-11-06T08:25:40;7.70;99.90
59307;DHT22;47983;53.016;-2.260;2022-11-06T08:28:08;7.70;99.90
59307;DHT22;47983;53.016;-2.260;2022-11-06T08:30:37;7.70;99.90
59307;DHT22;47983;53.016;-2.260;2022-11-06T08:33:06;7.80;99.90
59307;DHT22;47983;53.016;-2.260;2022-11-06T08:35:34;7.80;99.90
59307;DHT22;47983;53.016;-2.260;2022-11-06T08:38:02;7.80;99.90
59307;DHT22;47983;53.016;-2.260;2022-11-06T08:40:31;7.80;99.90
59307;DHT22;47983;53.016;-2.260;2022-11-06T08:43:05;7.80;99.90
59307;DHT22;47983;53.016;-2.260;2022-11-06T08:45:40;7.80;99.90
59307;DHT22;47983;53.016;-2.260;2022-11-06T08:48:09;7.90;99.90
59307;DHT22;47983;53.016;-2.260;2022-11-06T08:50:38;7.90;99.90
59307;DHT22;47983;53.016;-2.260;2022-11-06T08:53:07;7.90;99.90
59307;DHT22;47983;53.016;-2.260;2022-11-06T08:55:37;7.90;99.90
59307;DHT22;47983;53.016;-2.260;2022-11-06T08:58:05;7.90;99.90
59307;DHT22;47983;53.016;-2.260;2022-11-06T09:00:33;8.00;99.90
59307;DHT22;47983;53.016;-2.260;2022-11-06T09:03:05;8.00;99.90
59307;DHT22;47983;53.016;-2.260;2022-11-06T09:05:33;8.10;99.90
59307;DHT22;47983;53.016;-2.260;2022-11-06T09:08:01;8.10;99.90
59307;DHT22;47983;53.016;-2.260;2022-11-06T09:10:28;8.20;99.90
59307;DHT22;47983;53.016;-2.260;2022-11-06T09:12:57;8.20;99.90
59307;DHT22;47983;53.016;-2.260;2022-11-06T09:15:26;8.30;99.90
59307;DHT22;47983;53.016;-2.260;2022-11-06T09:17:53;8.30;99.90
59307;DHT22;47983;53.016;-2.260;2022-11-06T09:20:22;8.30;99.90
59307;DHT22;47983;53.016;-2.260;2022-11-06T09:22:51;8.40;99.90
59307;DHT22;47983;53.016;-2.260;2022-11-06T09:25:19;8.40;99.90
59307;DHT22;47983;53.016;-2.260;2022-11-06T09:27:50;8.40;99.90
59307;DHT22;47983;53.016;-2.260;2022-11-06T09:30:29;8.50;99.90
59307;DHT22;47983;53.016;-2.260;2022-11-06T09:32:59;8.50;99.90
59307;DHT22;47983;53.016;-2.260;2022-11-06T09:35:29;8.50;99.90
59307;DHT22;47983;53.016;-2.260;2022-11-06T09:40:51;8.60;99.90
59307;DHT22;47983;53.016;-2.260;2022-11-06T09:43:42;8.80;99.90
59307;DHT22;47983;53.016;-2.260;2022-11-06T09:46:41;8.80;99.90
59307;DHT22;47983;53.016;-2.260;2022-11-06T09:52:01;8.90;99.90
59307;DHT22;47983;53.016;-2.260;2022-11-06T09:54:41;9.00;99.90
59307;DHT22;47983;53.016;-2.260;2022-11-06T09:57:34;9.20;99.90
59307;DHT22;47983;53.016;-2.260;2022-11-06T10:00:04;9.40;99.90
59307;DHT22;47983;53.016;-2.260;2022-11-06T10:05:32;9.50;99.90
59307;DHT22;47983;53.016;-2.260;2022-11-06T10:08:06;9.60;99.90
59307;DHT22;47983;53.016;-2.260;2022-11-06T10:11:02;9.60;99.90
59307;DHT22;47983;53.016;-2.260;2022-11-06T10:19:34;9.80;99.90
59307;DHT22;47983;53.016;-2.260;2022-11-06T10:27:27;9.70;99.90
59307;DHT22;47983;53.016;-2.260;2022-11-06T10:30:12;9.70;99.90
59307;DHT22;47983;53.016;-2.260;2022-11-06T10:35:59;9.60;99.90
59307;DHT22;47983;53.016;-2.260;2022-11-06T10:38:34;9.60;99.90
59307;DHT22;47983;53.016;-2.260;2022-11-06T10:41:03;9.60;99.90
59307;DHT22;47983;53.016;-2.260;2022-11-06T10:43:34;9.60;99.90
59307;DHT22;47983;53.016;-2.260;2022-11-06T10:49:01;9.60;99.90
59307;DHT22;47983;53.016;-2.260;2022-11-06T10:52:01;9.60;99.90
59307;DHT22;47983;53.016;-2.260;2022-11-06T10:58:05;9.70;99.90
59307;DHT22;47983;53.016;-2.260;2022-11-06T11:00:14;9.70;99.90
59307;DHT22;47983;53.016;-2.260;2022-11-06T11:02:48;9.90;99.90
59307;DHT22;47983;53.016;-2.260;2022-11-06T11:05:20;10.00;99.90
59307;DHT22;47983;53.016;-2.260;2022-11-06T11:07:49;9.90;99.90
59307;DHT22;47983;53.016;-2.260;2022-11-06T11:10:29;9.90;99.90
59307;DHT22;47983;53.016;-2.260;2022-11-06T11:13:00;10.00;99.90
59307;DHT22;47983;53.016;-2.260;2022-11-06T11:15:43;10.00;99.90
59307;DHT22;47983;53.016;-2.260;2022-11-06T11:20:45;10.30;99.90
59307;DHT22;47983;53.016;-2.260;2022-11-06T11:23:24;10.30;99.90
59307;DHT22;47983;53.016;-2.260;2022-11-06T11:25:54;10.50;99.90
59307;DHT22;47983;53.016;-2.260;2022-11-06T11:28:53;10.60;99.90
59307;DHT22;47983;53.016;-2.260;2022-11-06T11:31:32;10.60;99.90
59307;DHT22;47983;53.016;-2.260;2022-11-06T11:34:02;10.70;99.90
59307;DHT22;47983;53.016;-2.260;2022-11-06T11:36:47;10.90;99.90
59307;DHT22;47983;53.016;-2.260;2022-11-06T11:39:16;8.50;99.90
59307;DHT22;47983;53.016;-2.260;2022-11-06T11:41:44;11.10;99.90
59307;DHT22;47983;53.016;-2.260;2022-11-06T11:44:17;11.20;99.90
59307;DHT22;47983;53.016;-2.260;2022-11-06T11:46:53;11.30;99.90
59307;DHT22;47983;53.016;-2.260;2022-11-06T11:51:54;11.20;99.90
59307;DHT22;47983;53.016;-2.260;2022-11-06T11:54:25;11.20;99.90
59307;DHT22;47983;53.016;-2.260;2022-11-06T11:57:06;11.10;99.90
59307;DHT22;47983;53.016;-2.260;2022-11-06T11:59:41;11.10;99.90
59307;DHT22;47983;53.016;-2.260;2022-11-06T12:05:21;11.00;99.90
59307;DHT22;47983;53.016;-2.260;2022-11-06T12:07:55;11.00;99.90
59307;DHT22;47983;53.016;-2.260;2022-11-06T12:10:39;11.00;99.90
59307;DHT22;47983;53.016;-2.260;2022-11-06T12:13:21;10.90;99.90
59307;DHT22;47983;53.016;-2.260;2022-11-06T12:18:36;10.90;99.90
59307;DHT22;47983;53.016;-2.260;2022-11-06T12:21:13;10.90;99.90
59307;DHT22;47983;53.016;-2.260;2022-11-06T12:23:53;10.90;99.90
59307;DHT22;47983;53.016;-2.260;2022-11-06T12:26:59;10.90;99.90
59307;DHT22;47983;53.016;-2.260;2022-11-06T12:29:39;10.80;99.90
59307;DHT22;47983;53.016;-2.260;2022-11-06T12:40:20;10.70;99.90
59307;DHT22;47983;53.016;-2.260;2022-11-06T13:00:20;10.60;99.90
59307;DHT22;47983;53.016;-2.260;2022-11-06T13:05:51;10.60;99.90
59307;DHT22;47983;53.016;-2.260;2022-11-06T13:08:27;10.60;99.90
59307;DHT22;47983;53.016;-2.260;2022-11-06T13:11:24;10.60;99.90
59307;DHT22;47983;53.016;-2.260;2022-11-06T13:14:01;10.60;99.90
59307;DHT22;47983;53.016;-2.260;2022-11-06T13:19:25;10.60;99.90
59307;DHT22;47983;53.016;-2.260;2022-11-06T13:21:59;10.60;99.90
59307;DHT22;47983;53.016;-2.260;2022-11-06T13:24:42;10.60;99.90
59307;DHT22;47983;53.016;-2.260;2022-11-06T13:27:36;10.60;99.90
59307;DHT22;47983;53.016;-2.260;2022-11-06T13:30:16;10.60;99.90
59307;DHT22;47983;53.016;-2.260;2022-11-06T13:35:40;10.60;99.90
59307;DHT22;47983;53.016;-2.260;2022-11-06T13:38:17;10.50;99.90
59307;DHT22;47983;53.016;-2.260;2022-11-06T13:40:53;10.50;99.90
59307;DHT22;47983;53.016;-2.260;2022-11-06T13:43:35;10.50;99.90
59307;DHT22;47983;53.016;-2.260;2022-11-06T13:46:17;10.50;99.90
59307;DHT22;47983;53.016;-2.260;2022-11-06T14:00:19;10.50;99.90
59307;DHT22;47983;53.016;-2.260;2022-11-06T14:06:26;10.50;99.90
59307;DHT22;47983;53.016;-2.260;2022-11-06T14:08:57;10.50;99.90
59307;DHT22;47983;53.016;-2.260;2022-11-06T14:11:28;10.60;99.90
59307;DHT22;47983;53.016;-2.260;2022-11-06T14:14:00;10.60;99.90
59307;DHT22;47983;53.016;-2.260;2022-11-06T14:16:31;10.60;99.90
59307;DHT22;47983;53.016;-2.260;2022-11-06T14:19:05;10.60;99.90
59307;DHT22;47983;53.016;-2.260;2022-11-06T14:26:44;10.50;99.90
59307;DHT22;47983;53.016;-2.260;2022-11-06T14:34:45;10.60;99.90
59307;DHT22;47983;53.016;-2.260;2022-11-06T14:55:42;10.70;99.90
59307;DHT22;47983;53.016;-2.260;2022-11-06T14:58:32;10.70;99.90
59307;DHT22;47983;53.016;-2.260;2022-11-06T15:03:50;10.70;99.90
59307;DHT22;47983;53.016;-2.260;2022-11-06T15:09:15;10.80;99.90
59307;DHT22;47983;53.016;-2.260;2022-11-06T15:12:04;10.80;99.90
59307;DHT22;47983;53.016;-2.260;2022-11-06T15:17:08;10.70;99.90
59307;DHT22;47983;53.016;-2.260;2022-11-06T15:19:46;10.70;99.90
59307;DHT22;47983;53.016;-2.260;2022-11-06T15:22:15;10.70;99.90
59307;DHT22;47983;53.016;-2.260;2022-11-06T15:27:51;10.60;99.90
59307;DHT22;47983;53.016;-2.260;2022-11-06T15:30:22;11.50;99.90
59307;DHT22;47983;53.016;-2.260;2022-11-06T15:32:51;10.60;99.90
59307;DHT22;47983;53.016;-2.260;2022-11-06T15:35:23;10.50;99.90
59307;DHT22;47983;53.016;-2.260;2022-11-06T15:38:04;10.50;99.90
59307;DHT22;47983;53.016;-2.260;2022-11-06T15:40:36;10.50;99.90
59307;DHT22;47983;53.016;-2.260;2022-11-06T15:43:12;10.40;99.90
59307;DHT22;47983;53.016;-2.260;2022-11-06T15:45:44;10.40;99.90
59307;DHT22;47983;53.016;-2.260;2022-11-06T15:48:22;10.40;99.90
59307;DHT22;47983;53.016;-2.260;2022-11-06T15:50:49;10.40;99.90
59307;DHT22;47983;53.016;-2.260;2022-11-06T15:53:20;10.30;99.90
59307;DHT22;47983;53.016;-2.260;2022-11-06T15:55:56;10.30;99.90
59307;DHT22;47983;53.016;-2.260;2022-11-06T15:58:28;10.30;99.90
59307;DHT22;47983;53.016;-2.260;2022-11-06T16:00:59;10.30;99.90
59307;DHT22;47983;53.016;-2.260;2022-11-06T16:03:30;10.30;99.90
59307;DHT22;47983;53.016;-2.260;2022-11-06T16:06:01;10.20;99.90
59307;DHT22;47983;53.016;-2.260;2022-11-06T16:08:30;10.20;99.90
59307;DHT22;47983;53.016;-2.260;2022-11-06T16:10:59;10.20;99.90
59307;DHT22;47983;53.016;-2.260;2022-11-06T16:13:28;10.20;99.90
59307;DHT22;47983;53.016;-2.260;2022-11-06T16:15:58;10.20;99.90
59307;DHT22;47983;53.016;-2.260;2022-11-06T16:18:40;10.20;99.90
59307;DHT22;47983;53.016;-2.260;2022-11-06T16:21:23;10.20;99.90
59307;DHT22;47983;53.016;-2.260;2022-11-06T16:23:58;10.10;99.90
59307;DHT22;47983;53.016;-2.260;2022-11-06T16:28:54;10.10;99.90
59307;DHT22;47983;53.016;-2.260;2022-11-06T16:31:25;10.00;99.90
59307;DHT22;47983;53.016;-2.260;2022-11-06T16:33:59;10.00;99.90
59307;DHT22;47983;53.016;-2.260;2022-11-06T16:36:28;9.90;99.90
59307;DHT22;47983;53.016;-2.260;2022-11-06T16:39:30;9.90;99.90
59307;DHT22;47983;53.016;-2.260;2022-11-06T16:47:32;9.80;99.90
59307;DHT22;47983;53.016;-2.260;2022-11-06T16:49:59;9.70;99.90
59307;DHT22;47983;53.016;-2.260;2022-11-06T16:52:36;9.60;99.90
59307;DHT22;47983;53.016;-2.260;2022-11-06T16:57:58;9.50;99.90
59307;DHT22;47983;53.016;-2.260;2022-11-06T17:00:31;9.50;99.90
59307;DHT22;47983;53.016;-2.260;2022-11-06T17:03:07;9.40;99.90
59307;DHT22;47983;53.016;-2.260;2022-11-06T17:05:53;9.40;99.90
59307;DHT22;47983;53.016;-2.260;2022-11-06T17:10:55;9.30;99.90
59307;DHT22;47983;53.016;-2.260;2022-11-06T17:13:32;9.30;99.90
59307;DHT22;47983;53.016;-2.260;2022-11-06T17:16:04;9.20;99.90
59307;DHT22;47983;53.016;-2.260;2022-11-06T17:18:35;9.10;99.90
59307;DHT22;47983;53.016;-2.260;2022-11-06T17:21:05;9.10;99.90
59307;DHT22;47983;53.016;-2.260;2022-11-06T17:23:34;9.00;99.90
59307;DHT22;47983;53.016;-2.260;2022-11-06T17:26:05;9.00;99.90
59307;DHT22;47983;53.016;-2.260;2022-11-06T17:28:34;8.90;99.90
59307;DHT22;47983;53.016;-2.260;2022-11-06T17:31:02;8.90;99.90
59307;DHT22;47983;53.016;-2.260;2022-11-06T17:33:29;7.10;99.90
59307;DHT22;47983;53.016;-2.260;2022-11-06T17:35:57;8.80;99.90
59307;DHT22;47983;53.016;-2.260;2022-11-06T17:38:25;8.80;99.90
59307;DHT22;47983;53.016;-2.260;2022-11-06T17:40:52;8.70;99.90
59307;DHT22;47983;53.016;-2.260;2022-11-06T17:43:20;8.70;99.90
59307;DHT22;47983;53.016;-2.260;2022-11-06T17:45:47;8.70;99.90
59307;DHT22;47983;53.016;-2.260;2022-11-06T17:48:16;8.60;99.90
59307;DHT22;47983;53.016;-2.260;2022-11-06T17:50:44;8.60;99.90
59307;DHT22;47983;53.016;-2.260;2022-11-06T17:53:31;8.60;99.90
59307;DHT22;47983;53.016;-2.260;2022-11-06T17:56:03;8.50;99.90
59307;DHT22;47983;53.016;-2.260;2022-11-06T17:58:33;8.50;99.90
59307;DHT22;47983;53.016;-2.260;2022-11-06T18:01:09;8.50;99.90
59307;DHT22;47983;53.016;-2.260;2022-11-06T18:03:42;8.60;99.90
59307;DHT22;47983;53.016;-2.260;2022-11-06T18:06:14;7.30;99.90
59307;DHT22;47983;53.016;-2.260;2022-11-06T18:08:43;8.60;99.90
59307;DHT22;47983;53.016;-2.260;2022-11-06T18:11:11;8.50;99.90
59307;DHT22;47983;53.016;-2.260;2022-11-06T18:13:39;8.60;99.90
59307;DHT22;47983;53.016;-2.260;2022-11-06T18:16:16;8.60;99.90
59307;DHT22;47983;53.016;-2.260;2022-11-06T18:18:43;8.60;99.90
59307;DHT22;47983;53.016;-2.260;2022-11-06T18:21:11;8.60;99.90
59307;DHT22;47983;53.016;-2.260;2022-11-06T18:23:39;8.60;99.90
59307;DHT22;47983;53.016;-2.260;2022-11-06T18:26:07;8.60;99.90
59307;DHT22;47983;53.016;-2.260;2022-11-06T18:28:34;8.60;99.90
59307;DHT22;47983;53.016;-2.260;2022-11-06T18:33:33;8.50;99.90
59307;DHT22;47983;53.016;-2.260;2022-11-06T18:36:02;8.60;99.90
59307;DHT22;47983;53.016;-2.260;2022-11-06T18:38:30;8.50;99.90
59307;DHT22;47983;53.016;-2.260;2022-11-06T18:41:14;8.50;99.90
59307;DHT22;47983;53.016;-2.260;2022-11-06T18:43:42;8.60;99.90
59307;DHT22;47983;53.016;-2.260;2022-11-06T18:46:15;8.50;99.90
59307;DHT22;47983;53.016;-2.260;2022-11-06T18:48:44;8.50;99.90
59307;DHT22;47983;53.016;-2.260;2022-11-06T18:51:17;8.50;99.90
59307;DHT22;47983;53.016;-2.260;2022-11-06T18:54:03;8.50;99.90
59307;DHT22;47983;53.016;-2.260;2022-11-06T18:56:31;8.50;99.90
59307;DHT22;47983;53.016;-2.260;2022-11-06T18:58:59;8.50;99.90
59307;DHT22;47983;53.016;-2.260;2022-11-06T19:01:27;8.50;99.90
59307;DHT22;47983;53.016;-2.260;2022-11-06T19:03:56;9.60;99.90
59307;DHT22;47983;53.016;-2.260;2022-11-06T19:06:23;8.60;99.90
59307;DHT22;47983;53.016;-2.260;2022-11-06T19:08:51;8.50;99.90
59307;DHT22;47983;53.016;-2.260;2022-11-06T19:11:19;8.50;99.90
59307;DHT22;47983;53.016;-2.260;2022-11-06T19:13:46;8.50;99.90
59307;DHT22;47983;53.016;-2.260;2022-11-06T19:16:16;8.50;99.90